Time;durP1;ratioP1;P1;durP2;ratioP2;P2;SDS_P1;SDS_P2;PMS_P1;PMS_P2;Temp;Humidity;BMP_temperature;BMP_pressure;BME280_temperature;BME280_humidity;BME280_pressure;Samples;Min_cycle;Max_cycle;Signal;HPM_P1;HPM_P2
2022/05/21 00:00:20;;;;;;;19.30;7.93;;;;;;;7.08;43.10;99608.72;5049679;28;20029;-59
2022/05/21 00:02:47;;;;;;;21.20;7.88;;;;;;;7.08;43.12;99597.25;5052715;28;20520;-59
2022/05/21 00:05:14;;;;;;;14.57;7.18;;;;;;;6.95;43.11;99583.94;5053345;28;20061;-56
2022/05/21 00:07:39;;;;;;;17.08;7.85;;;;;;;7.06;43.53;99602.66;5052682;28;20041;-56
2022/05/21 00:10:07;;;;;;;15.18;7.65;;;;;;;7.03;43.06;99601.09;5033214;28;20068;-56
2022/05/21 00:12:33;;;;;;;16.13;8.13;;;;;;;7.03;43.73;99603.75;5033358;28;20057;-57
2022/05/21 00:14:59;;;;;;;16.27;7.90;;;;;;;6.98;44.00;99600.53;5043675;28;20060;-58
2022/05/21 00:17:25;;;;;;;14.48;7.95;;;;;;;6.84;43.61;99577.53;5052643;28;20074;-57
2022/05/21 00:19:50;;;;;;;15.45;7.97;;;;;;;6.98;44.21;99602.34;5052948;28;20033;-58
2022/05/21 00:22:16;;;;;;;20.20;7.88;;;;;;;6.88;44.59;99583.50;5053467;28;20079;-56
2022/05/21 00:24:42;;;;;;;19.73;7.85;;;;;;;6.93;44.35;99597.34;5033411;28;20068;-55
2022/05/21 00:27:07;;;;;;;13.75;7.75;;;;;;;6.94;44.43;99603.53;5048945;28;20037;-57
2022/05/21 00:29:34;;;;;;;19.25;7.65;;;;;;;6.97;44.11;99600.66;5053083;28;20036;-56
2022/05/21 00:31:59;;;;;;;23.33;8.57;;;;;;;6.97;44.29;99592.66;5051000;28;20040;-55
2022/05/21 00:34:25;;;;;;;21.10;8.70;;;;;;;6.98;44.37;99589.88;5031656;28;20039;-55
2022/05/21 00:36:51;;;;;;;25.90;8.57;;;;;;;6.72;44.01;99541.13;5032919;28;20063;-59
2022/05/21 00:39:17;;;;;;;21.45;8.45;;;;;;;7.11;44.22;99599.69;5043567;28;20476;-59
2022/05/21 00:41:43;;;;;;;16.65;8.23;;;;;;;7.20;44.15;99595.53;5051378;28;20041;-57
2022/05/21 00:44:09;;;;;;;15.70;8.27;;;;;;;7.24;43.85;99597.00;5039004;28;20030;-57
2022/05/21 00:46:40;;;;;;;19.20;8.07;;;;;;;7.21;44.35;99589.25;5032436;28;20033;-57
2022/05/21 00:49:22;;;;;;;19.33;8.10;;;;;;;7.35;43.28;99585.59;5032776;28;20036;-58
2022/05/21 00:52:04;;;;;;;21.50;8.15;;;;;;;7.34;44.17;99579.41;5046799;28;20032;-58
2022/05/21 00:54:38;;;;;;;21.48;8.73;;;;;;;7.45;43.55;99587.50;5052069;28;20052;-56
2022/05/21 00:57:13;;;;;;;17.02;8.23;;;;;;;7.45;43.56;99592.81;5052255;28;20119;-59
2022/05/21 00:59:50;;;;;;;;;;;;;;;7.68;41.11;99587.66;5052939;28;20481;-56
2022/05/21 01:02:25;;;;;;;19.77;8.48;;;;;;;7.57;43.22;99577.78;5051867;28;19939;-56
2022/05/21 01:04:50;;;;;;;23.13;8.55;;;;;;;7.44;44.21;99574.28;5050424;28;20099;-55
2022/05/21 01:07:17;;;;;;;20.10;7.68;;;;;;;7.43;44.10;99584.09;5051784;28;20044;-56
2022/05/21 01:09:50;;;;;;;21.15;7.97;;;;;;;7.50;44.21;99584.50;5032091;28;20026;-57
2022/05/21 01:12:16;;;;;;;23.00;9.02;;;;;;;7.52;44.34;99568.41;5031548;28;20085;-56
2022/05/21 01:14:42;;;;;;;17.55;8.43;;;;;;;7.49;44.89;99571.28;5031853;28;20041;-59
2022/05/21 01:17:08;;;;;;;19.80;8.65;;;;;;;7.50;44.85;99571.19;5032045;28;20389;-57
2022/05/21 01:19:53;;;;;;;16.77;7.97;;;;;;;7.58;44.36;99571.47;5031989;28;20029;-58
2022/05/21 01:22:25;;;;;;;16.03;8.83;;;;;;;7.55;45.68;99573.50;5031927;28;20110;-55
2022/05/21 01:24:50;;;;;;;13.93;8.35;;;;;;;7.49;45.75;99574.81;5031838;28;20065;-56
2022/05/21 01:27:16;;;;;;;24.63;8.23;;;;;;;7.47;46.69;99579.38;5046304;28;20047;-56
2022/05/21 01:29:42;;;;;;;23.42;8.82;;;;;;;7.48;46.47;99570.47;5050266;28;20171;-60
2022/05/21 01:32:15;;;;;;;21.08;8.48;;;;;;;7.49;46.44;99566.84;5031621;28;20049;-56
2022/05/21 01:34:40;;;;;;;18.88;8.63;;;;;;;7.49;46.40;99576.63;5031444;28;20465;-55
2022/05/21 01:37:06;;;;;;;24.95;9.02;;;;;;;7.48;46.46;99586.44;5031228;28;20123;-56
2022/05/21 01:39:31;;;;;;;17.50;8.82;;;;;;;7.41;45.94;99564.72;5031330;28;20102;-54
2022/05/21 01:41:56;;;;;;;21.67;8.77;;;;;;;7.51;46.34;99580.03;5031359;28;20044;-55
2022/05/21 01:44:40;;;;;;;16.92;9.18;;;;;;;7.52;46.66;99571.94;5037388;28;20040;-59
2022/05/21 01:47:10;;;;;;;23.25;9.20;;;;;;;7.56;46.14;99567.22;5051257;28;20029;-57
2022/05/21 01:49:36;;;;;;;17.02;8.98;;;;;;;7.58;46.52;99574.16;5050668;28;20374;-55
2022/05/21 01:52:04;;;;;;;24.27;9.32;;;;;;;7.61;45.73;99565.09;5031071;28;20476;-57
2022/05/21 01:54:31;;;;;;;20.52;9.38;;;;;;;7.65;46.43;99565.69;5035624;28;20021;-59
2022/05/21 01:56:57;;;;;;;25.80;9.40;;;;;;;7.67;46.37;99555.78;5050531;28;20459;-56
2022/05/21 01:59:23;;;;;;;20.75;9.30;;;;;;;7.59;46.34;99543.88;5039881;28;20117;-59
2022/05/21 02:01:48;;;;;;;21.77;10.23;;;;;;;7.81;46.37;99568.97;5030975;28;20041;-58
2022/05/21 02:04:15;;;;;;;23.77;9.27;;;;;;;7.84;46.32;99570.56;5030926;28;20025;-57
2022/05/21 02:06:42;;;;;;;28.17;9.30;;;;;;;7.80;46.05;99561.06;5030841;28;20405;-56
2022/05/21 02:09:08;;;;;;;23.70;9.98;;;;;;;7.85;46.62;99567.75;5030974;28;20540;-58
2022/05/21 02:11:34;;;;;;;18.98;8.80;;;;;;;7.84;46.21;99563.41;5046469;28;20036;-57
2022/05/21 02:13:59;;;;;;;24.33;9.65;;;;;;;7.78;45.37;99537.19;5050855;28;20033;-57
2022/05/21 02:16:25;;;;;;;30.30;9.23;;;;;;;7.95;45.63;99559.06;5048754;28;20033;-59
2022/05/21 02:18:50;;;;;;;20.33;9.60;;;;;;;8.05;44.85;99568.09;5030725;28;20116;-56
2022/05/21 02:21:17;;;;;;;25.63;9.00;;;;;;;8.16;44.22;99562.81;5031643;28;20535;-59
2022/05/21 02:23:43;;;;;;;19.05;9.27;;;;;;;8.02;44.15;99539.00;5030029;28;20063;-58
2022/05/21 02:26:09;;;;;;;23.73;9.70;;;;;;;8.16;44.30;99564.66;5030411;28;20053;-57
2022/05/21 02:28:34;;;;;;;19.30;8.40;;;;;;;8.23;44.11;99565.03;5030508;28;20036;-58
2022/05/21 02:31:00;;;;;;;19.73;9.30;;;;;;;8.15;43.76;99537.13;5041393;28;20480;-56
2022/05/21 02:33:25;;;;;;;16.10;8.57;;;;;;;8.44;42.94;99558.09;5050921;28;20140;-54
2022/05/21 02:35:50;;;;;;;22.90;9.45;;;;;;;8.52;43.01;99564.69;5039290;28;20481;-56
2022/05/21 02:41:00;;;;;;;18.52;9.45;;;;;;;8.59;42.57;99531.22;5030388;28;20038;-57
2022/05/21 02:43:28;;;;;;;16.38;9.35;;;;;;;8.71;41.92;99519.59;5030701;28;20033;-57
2022/05/21 02:45:53;;;;;;;22.67;9.30;;;;;;;9.11;41.54;99549.47;5029484;28;20311;-55
2022/05/21 02:48:19;;;;;;;20.98;9.52;;;;;;;9.24;40.46;99546.66;5031154;28;20086;-56
2022/05/21 02:50:44;;;;;;;20.25;9.88;;;;;;;9.19;40.64;99533.69;5030139;28;20029;-59
2022/05/21 02:53:17;;;;;;;19.13;9.57;;;;;;;9.43;40.35;99538.03;5032407;28;20028;-52
2022/05/21 02:55:43;;;;;;;21.50;8.50;;;;;;;9.66;39.36;99562.06;5048814;28;20052;-57
2022/05/21 02:58:09;;;;;;;20.17;8.88;;;;;;;9.78;39.03;99550.34;5049241;28;20032;-58
2022/05/21 03:00:35;;;;;;;20.58;9.25;;;;;;;9.88;38.74;99558.47;5030179;28;20037;-52
2022/05/21 03:03:00;;;;;;;18.80;9.40;;;;;;;10.04;38.08;99558.06;5030156;28;20087;-56
2022/05/21 03:05:29;;;;;;;19.38;8.57;;;;;;;10.16;37.95;99556.19;5030789;28;20113;-53
2022/05/21 03:07:55;;;;;;;18.38;8.13;;;;;;;10.31;37.40;99554.03;5030087;28;20026;-56
2022/05/21 03:10:24;;;;;;;18.77;8.88;;;;;;;10.46;37.61;99552.78;5030127;28;20040;-56
2022/05/21 03:12:53;;;;;;;18.98;8.50;;;;;;;10.69;36.52;99551.81;5045771;28;20171;-58
2022/05/21 03:15:23;;;;;;;12.60;7.13;;;;;;;10.85;36.26;99546.84;5033709;28;20486;-56
2022/05/21 03:17:49;;;;;;;14.85;7.82;;;;;;;10.87;35.42;99514.56;5028627;28;20033;-58
2022/05/21 03:20:17;;;;;;;16.75;7.70;;;;;;;11.22;35.31;99542.78;5029918;28;20040;-59
2022/05/21 03:22:43;;;;;;;13.90;7.05;;;;;;;11.52;34.17;99542.88;5029993;28;20095;-59
2022/05/21 03:25:10;;;;;;;17.30;7.15;;;;;;;11.91;33.72;99543.78;5030023;28;20057;-56
2022/05/21 03:27:37;;;;;;;14.90;7.13;;;;;;;12.59;32.56;99531.34;5030146;28;20034;-55
2022/05/21 03:30:04;;;;;;;17.08;7.68;;;;;;;13.44;30.96;99535.91;5045060;28;20029;-56
2022/05/21 03:32:30;;;;;;;12.68;7.47;;;;;;;14.30;29.13;99540.97;5049775;28;20036;-57
2022/05/21 03:34:55;;;;;;;15.68;7.85;;;;;;;14.93;28.29;99520.22;5049233;28;20036;-58
2022/05/21 03:37:20;;;;;;;19.02;8.52;;;;;;;15.47;27.42;99521.84;5053431;28;20483;-58
2022/05/21 03:39:46;;;;;;;18.23;9.05;;;;;;;16.01;26.56;99520.66;5036616;28;20040;-59
2022/05/21 03:42:12;;;;;;;18.20;8.38;;;;;;;16.62;25.74;99520.28;5033342;28;20037;-59
2022/05/21 03:44:37;;;;;;;20.13;8.60;;;;;;;17.28;24.84;99520.16;5033589;28;20048;-58
2022/05/21 03:47:03;;;;;;;16.23;8.45;;;;;;;18.08;23.61;99530.91;5038158;28;20021;-59
2022/05/21 03:49:29;;;;;;;15.98;9.05;;;;;;;18.76;22.70;99512.03;5052392;28;20085;-61
2022/05/21 03:51:54;;;;;;;16.67;8.85;;;;;;;19.36;21.93;99517.50;5048563;28;20025;-59
2022/05/21 03:54:19;;;;;;;13.30;8.35;;;;;;;20.03;20.83;99520.19;5033275;28;20056;-58
2022/05/21 03:56:45;;;;;;;18.10;8.68;;;;;;;20.56;20.13;99505.38;5033234;28;20065;-59
2022/05/21 03:59:11;;;;;;;16.00;7.65;;;;;;;21.28;19.21;99516.13;5032965;28;20030;-60
2022/05/21 04:01:37;;;;;;;19.40;8.45;;;;;;;21.65;18.91;99514.00;5032934;28;20029;-59
2022/05/21 04:04:03;;;;;;;17.20;8.02;;;;;;;21.76;18.70;99511.75;5033478;28;20057;-60
2022/05/21 04:06:29;;;;;;;14.38;7.85;;;;;;;21.67;18.59;99511.06;5034330;28;20112;-57
2022/05/21 04:08:54;;;;;;;11.02;7.35;;;;;;;21.64;18.58;99515.03;5032980;28;20104;-57
2022/05/21 04:11:19;;;;;;;11.95;6.90;;;;;;;21.49;18.56;99512.44;5035735;28;20043;-58
2022/05/21 04:13:45;;;;;;;14.13;6.97;;;;;;;21.74;18.33;99508.38;5052722;28;20025;-57
2022/05/21 04:16:10;;;;;;;14.57;6.57;;;;;;;22.28;17.29;99505.75;5052121;28;20033;-58
2022/05/21 04:18:36;;;;;;;11.80;7.20;;;;;;;22.68;17.19;99505.78;5037201;28;20029;-58
2022/05/21 04:21:01;;;;;;;12.05;7.35;;;;;;;23.31;16.47;99506.28;5031933;28;20065;-57
2022/05/21 04:23:27;;;;;;;14.65;7.32;;;;;;;23.87;15.96;99503.91;5033158;28;20041;-58
2022/05/21 04:25:52;;;;;;;10.57;6.53;;;;;;;24.90;14.79;99503.78;5032700;28;20064;-58
2022/05/21 04:28:18;;;;;;;13.20;6.20;;;;;;;25.97;14.19;99501.66;5032837;28;20504;-60
2022/05/21 04:30:44;;;;;;;11.05;6.45;;;;;;;26.96;13.40;99504.91;5033094;28;20029;-60
2022/05/21 04:33:09;;;;;;;11.35;6.70;;;;;;;27.88;12.56;99496.09;5033710;28;20064;-58
2022/05/21 04:38:19;;;;;;;11.85;6.15;;;;;;;28.22;12.09;99498.91;5032609;28;20120;-58
2022/05/21 04:40:45;;;;;;;9.65;6.82;;;;;;;29.02;11.37;99501.56;5032969;28;20108;-58
2022/05/21 04:43:10;;;;;;;12.77;6.00;;;;;;;29.72;11.05;99497.47;5033362;28;20052;-58
2022/05/21 04:45:36;;;;;;;9.63;6.10;;;;;;;30.14;10.79;99496.78;5052405;28;20029;-58
2022/05/21 04:48:07;;;;;;;9.90;5.93;;;;;;;31.14;10.45;99490.88;5050811;28;20178;-58
2022/05/21 04:50:35;;;;;;;11.73;6.05;;;;;;;31.31;9.84;99497.06;5052975;28;20465;-56
2022/05/21 04:53:00;;;;;;;12.10;6.25;;;;;;;31.68;9.36;99486.13;5037002;28;20116;-56
2022/05/21 04:55:26;;;;;;;9.50;5.57;;;;;;;31.93;9.14;99480.66;5032197;28;20044;-60
2022/05/21 04:57:51;;;;;;;9.43;5.65;;;;;;;32.26;9.35;99479.56;5045262;28;20479;-56
2022/05/21 05:00:17;;;;;;;8.45;6.22;;;;;;;32.57;9.30;99474.06;5052312;28;20029;-54
2022/05/21 05:02:43;;;;;;;11.38;6.35;;;;;;;32.86;8.42;99459.56;5052106;28;20122;-58
2022/05/21 05:05:09;;;;;;;8.52;6.15;;;;;;;33.40;8.61;99476.56;5049938;28;20043;-53
2022/05/21 05:07:36;;;;;;;9.77;6.10;;;;;;;32.95;9.01;99477.31;5051856;28;20036;-54
2022/05/21 05:10:03;;;;;;;9.93;6.05;;;;;;;33.24;8.82;99473.88;5052101;28;20037;-55
2022/05/21 05:12:29;;;;;;;9.88;6.40;;;;;;;33.88;8.36;99471.31;5042520;28;20076;-53
2022/05/21 05:14:54;;;;;;;9.05;6.22;;;;;;;34.76;7.51;99467.00;5051380;28;20466;-53
2022/05/21 05:17:20;;;;;;;12.15;6.50;;;;;;;35.69;6.75;99476.16;5051880;28;20132;-54
2022/05/21 05:19:46;;;;;;;12.30;6.35;;;;;;;36.24;6.60;99475.63;5051923;28;20363;-55
2022/05/21 05:22:13;;;;;;;10.13;6.78;;;;;;;36.99;6.16;99472.88;5051742;28;20037;-50
2022/05/21 05:24:39;;;;;;;11.70;6.43;;;;;;;37.23;5.91;99466.28;5051495;28;20492;-55
2022/05/21 05:27:05;;;;;;;34.20;7.30;;;;;;;36.97;6.34;99464.00;5050544;28;20040;-57
2022/05/21 05:29:31;;;;;;;13.27;6.60;;;;;;;36.93;6.37;99457.38;5047401;28;20032;-61
2022/05/21 05:31:56;;;;;;;12.38;6.65;;;;;;;37.37;5.78;99445.88;5031502;28;20037;-51
2022/05/21 05:34:21;;;;;;;11.27;6.32;;;;;;;37.03;6.36;99440.44;5048376;28;20035;-56
2022/05/21 05:36:47;;;;;;;9.95;6.65;;;;;;;36.99;6.23;99438.56;5051312;28;20059;-53
2022/05/21 05:39:13;;;;;;;8.98;5.80;;;;;;;37.66;5.66;99441.91;5051233;28;20445;-54
2022/05/21 05:41:40;;;;;;;11.95;5.60;;;;;;;38.00;5.82;99423.78;5032476;28;20029;-57
2022/05/21 05:44:06;;;;;;;9.30;5.45;;;;;;;38.06;5.45;99428.09;5031708;28;20037;-60
2022/05/21 05:46:31;;;;;;;6.45;5.25;;;;;;;38.40;5.24;99429.47;5031124;28;20116;-58
2022/05/21 05:48:57;;;;;;;7.88;4.90;;;;;;;38.27;5.32;99402.41;5038779;28;20030;-57
2022/05/21 05:51:22;;;;;;;8.40;5.43;;;;;;;38.90;5.07;99419.16;5040247;28;20025;-59
2022/05/21 05:53:49;;;;;;;8.45;5.60;;;;;;;39.63;4.93;99429.00;5039080;28;20021;-59
2022/05/21 05:56:15;;;;;;;6.70;5.43;;;;;;;40.43;4.32;99426.97;5037803;28;20469;-58
2022/05/21 06:01:26;;;;;;;7.20;5.00;;;;;;;40.88;4.13;99404.03;5039877;28;20032;-59
2022/05/21 06:03:53;;;;;;;7.55;4.90;;;;;;;41.00;4.21;99411.72;5042641;28;20307;-58
2022/05/21 06:06:18;;;;;;;8.75;5.15;;;;;;;41.82;3.61;99403.19;5051056;28;20110;-60
2022/05/21 06:08:45;;;;;;;9.63;4.72;;;;;;;42.64;3.40;99398.81;5051049;28;20064;-60
2022/05/21 06:11:11;;;;;;;9.25;4.82;;;;;;;43.19;3.10;99390.13;5032423;28;20041;-60
2022/05/21 06:13:37;;;;;;;6.65;4.30;;;;;;;43.51;2.61;99387.47;5044192;28;20035;-56
2022/05/21 06:16:03;;;;;;;3.42;2.85;;;;;;;43.69;2.25;99387.16;5049427;28;20028;-58
2022/05/21 06:18:29;;;;;;;5.80;4.28;;;;;;;43.72;2.68;99386.47;5044763;28;20033;-58
2022/05/21 06:20:58;;;;;;;6.00;4.13;;;;;;;43.96;2.61;99390.34;5038257;28;20488;-58
2022/05/21 06:23:24;;;;;;;6.03;3.70;;;;;;;43.60;2.83;99384.50;5039506;28;20064;-60
2022/05/21 06:25:49;;;;;;;5.40;3.47;;;;;;;43.65;2.30;99372.13;5041181;28;20152;-59
2022/05/21 06:28:16;;;;;;;7.50;3.58;;;;;;;42.65;2.65;99363.88;5037728;28;20045;-61
2022/05/21 06:30:43;;;;;;;4.22;3.03;;;;;;;42.18;2.81;99374.38;5039296;28;20398;-60
2022/05/21 06:33:17;;;;;;;6.88;3.40;;;;;;;41.78;3.56;99380.59;5037732;28;20049;-61
2022/05/21 06:35:43;;;;;;;;;;;;;;;43.44;3.36;99373.19;5029649;28;20033;-60
2022/05/21 06:38:08;;;;;;;6.50;3.40;;;;;;;41.57;3.07;99350.50;5035080;28;20015;-58
2022/05/21 06:40:34;;;;;;;3.97;2.72;;;;;;;42.08;2.69;99352.34;5048301;28;20104;-59
2022/05/21 06:43:00;;;;;;;3.20;2.47;;;;;;;42.81;2.86;99360.34;5049439;28;20124;-57
2022/05/21 06:45:33;;;;;;;5.20;2.85;;;;;;;44.13;2.06;99375.94;5049231;28;20021;-60
2022/05/21 06:48:00;;;;;;;4.22;2.75;;;;;;;43.00;2.01;99356.94;5047799;28;20112;-62
2022/05/21 06:50:27;;;;;;;7.68;2.95;;;;;;;42.41;2.54;99330.91;5049071;28;20033;-60
2022/05/21 06:52:53;;;;;;;5.03;3.03;;;;;;;43.01;2.40;99353.78;5039994;28;20033;-62
2022/05/21 06:55:20;;;;;;;5.20;2.50;;;;;;;43.54;2.23;99326.75;5029686;28;20056;-60
2022/05/21 06:57:45;;;;;;;6.72;2.22;;;;;;;44.46;1.42;99345.69;5029492;28;20107;-61
2022/05/21 07:00:11;;;;;;;3.47;2.17;;;;;;;44.33;1.72;99352.63;5029417;28;20037;-60
2022/05/21 07:02:36;;;;;;;3.85;2.03;;;;;;;44.23;1.41;99342.72;5041611;28;20491;-61
2022/05/21 07:07:46;;;;;;;4.05;2.15;;;;;;;44.31;1.89;99333.22;5029103;28;20083;-60
2022/05/21 07:10:20;;;;;;;4.63;2.38;;;;;;;45.30;1.33;99329.47;5034886;28;20119;-62
2022/05/21 07:12:46;;;;;;;;;;;;;;;48.21;1.84;99336.63;5050974;28;20071;-61
2022/05/21 07:15:13;;;;;;;2.15;1.95;;;;;;;46.44;0.74;99321.88;5054104;28;19948;-64
2022/05/21 07:17:38;;;;;;;3.42;2.28;;;;;;;46.02;0.73;99326.41;5047169;28;20044;-54
2022/05/21 07:20:10;;;;;;;3.13;2.58;;;;;;;46.01;1.42;99321.94;5033931;28;20105;-58
2022/05/21 07:22:40;;;;;;;4.60;2.47;;;;;;;45.63;1.43;99315.19;5034002;28;20037;-59
2022/05/21 07:25:06;;;;;;;4.10;2.45;;;;;;;45.70;1.60;99304.84;5032849;28;20099;-58
2022/05/21 07:27:31;;;;;;;6.78;2.63;;;;;;;45.60;1.11;99305.44;5052878;28;20458;-61
2022/05/21 07:29:57;;;;;;;3.33;2.15;;;;;;;45.63;1.48;99307.50;5053733;28;20033;-61
2022/05/21 07:32:24;;;;;;;4.05;2.72;;;;;;;45.94;1.07;99302.88;5047501;28;20048;-61
2022/05/21 07:35:06;;;;;;;3.97;2.40;;;;;;;46.70;1.18;99303.28;5033750;28;20068;-62
2022/05/21 07:37:32;;;;;;;3.75;2.20;;;;;;;46.09;1.05;99289.78;5035773;28;20266;-59
2022/05/21 07:39:59;;;;;;;3.40;2.40;;;;;;;46.20;1.05;99286.31;5033650;28;20037;-58
2022/05/21 07:42:25;;;;;;;4.75;2.40;;;;;;;46.63;0.52;99284.19;5033330;28;20037;-60
2022/05/21 07:44:50;;;;;;;5.50;2.40;;;;;;;46.70;0.90;99289.13;5033342;28;20415;-60
2022/05/21 07:47:16;;;;;;;7.88;2.47;;;;;;;46.40;1.05;99281.38;5033471;28;20048;-54
2022/05/21 07:49:42;;;;;;;5.45;2.28;;;;;;;46.40;1.21;99281.38;5034894;28;20044;-59
2022/05/21 07:52:08;;;;;;;3.88;2.60;;;;;;;46.26;0.76;99265.81;5048249;28;20033;-57
2022/05/21 07:54:34;;;;;;;4.15;2.55;;;;;;;45.63;1.11;99273.59;5033491;28;20037;-58
2022/05/21 07:57:01;;;;;;;3.45;2.50;;;;;;;44.99;1.31;99273.94;5033004;28;20045;-57
2022/05/21 07:59:27;;;;;;;4.25;2.80;;;;;;;44.44;1.29;99281.16;5032945;28;20040;-59
2022/05/21 08:01:54;;;;;;;4.88;2.40;;;;;;;43.37;1.63;99265.88;5033849;28;20021;-61
2022/05/21 08:04:19;;;;;;;4.45;2.72;;;;;;;42.67;1.96;99271.47;5053273;28;20032;-59
2022/05/21 08:06:45;;;;;;;4.68;2.28;;;;;;;41.63;2.61;99269.66;5052901;28;20059;-56
2022/05/21 08:09:10;;;;;;;4.88;2.90;;;;;;;41.08;2.52;99266.00;5053196;28;20048;-60
2022/05/21 08:11:36;;;;;;;3.55;2.30;;;;;;;40.38;2.81;99245.69;5051448;28;20392;-56
2022/05/21 08:14:02;;;;;;;4.75;2.35;;;;;;;39.19;3.75;99231.03;5040229;28;20028;-59
2022/05/21 08:16:28;;;;;;;2.85;2.45;;;;;;;36.99;4.35;99248.84;5052733;28;20045;-59
2022/05/21 08:18:54;;;;;;;5.22;2.75;;;;;;;33.79;5.89;99262.06;5052918;28;20029;-62
2022/05/21 08:21:20;;;;;;;4.25;2.40;;;;;;;31.08;7.54;99247.56;5052841;28;20060;-55
2022/05/21 08:29:14;;;;;;;2.90;2.30;;;;;;;25.31;11.66;99247.47;5033164;28;20419;-61
2022/05/21 08:31:39;;;;;;;5.35;2.47;;;;;;;23.98;12.40;99250.84;5035259;28;20029;-59
2022/05/21 08:34:05;;;;;;;5.07;2.50;;;;;;;22.90;13.33;99238.03;5052315;28;20033;-60
2022/05/21 08:36:30;;;;;;;7.60;2.67;;;;;;;21.90;13.70;99235.47;5052448;28;20108;-62
2022/05/21 08:38:56;;;;;;;5.28;2.70;;;;;;;20.93;14.96;99238.56;5050789;28;20115;-61
2022/05/21 08:41:28;;;;;;;3.78;2.45;;;;;;;20.38;15.10;99234.00;5035522;28;20044;-61
2022/05/21 08:44:05;;;;;;;4.60;2.53;;;;;;;19.98;15.81;99236.50;5032465;28;20033;-59
2022/05/21 08:46:42;;;;;;;5.13;2.42;;;;;;;19.75;15.75;99224.84;5032405;28;20033;-58
2022/05/21 08:49:25;;;;;;;5.32;2.50;;;;;;;19.51;16.47;99237.84;5032695;28;20069;-62
2022/05/21 08:52:10;;;;;;;3.85;2.25;;;;;;;19.29;16.10;99231.63;5036836;28;20104;-58
2022/05/21 08:54:43;;;;;;;5.07;2.60;;;;;;;19.08;16.72;99233.31;5052409;28;20143;-56
2022/05/21 08:57:14;;;;;;;4.05;2.50;;;;;;;18.79;16.61;99228.78;5052105;28;20040;-60
2022/05/21 08:59:47;;;;;;;6.40;2.65;;;;;;;18.61;17.01;99229.25;5052492;28;20028;-64
2022/05/21 09:02:17;;;;;;;7.38;2.70;;;;;;;18.10;17.35;99192.97;5048528;28;20096;-60
2022/05/21 09:04:43;;;;;;;3.47;2.05;;;;;;;18.03;17.75;99198.31;5044366;28;20211;-56
2022/05/21 09:07:20;;;;;;;4.82;2.30;;;;;;;18.10;17.38;99205.66;5052252;28;20329;-59
2022/05/21 09:10:01;;;;;;;5.75;2.60;;;;;;;17.83;18.06;99189.84;5052690;28;20037;-60
2022/05/21 09:12:52;;;;;;;7.80;3.00;;;;;;;17.93;17.86;99201.25;5041371;28;20037;-55
2022/05/21 09:18:09;;;;;;;7.22;3.08;;;;;;;17.46;18.88;99188.91;5037376;28;20076;-58
2022/05/21 09:20:45;;;;;;;6.00;2.90;;;;;;;17.56;18.79;99192.19;5051648;28;20179;-55
2022/05/21 09:23:11;;;;;;;6.90;3.17;;;;;;;17.55;18.88;99187.81;5051959;28;20464;-60
2022/05/21 09:25:37;;;;;;;6.80;2.53;;;;;;;17.72;18.95;99193.03;5051914;28;20504;-59
2022/05/21 09:28:11;;;;;;;8.77;3.00;;;;;;;17.83;17.78;99181.75;5051087;28;20065;-59
2022/05/21 09:30:42;;;;;;;8.93;2.97;;;;;;;17.71;17.54;99181.38;5046849;28;20033;-55
2022/05/21 09:33:22;;;;;;;4.22;2.60;;;;;;;17.53;17.68;99176.31;5044395;28;20029;-61
2022/05/21 09:35:58;;;;;;;5.28;2.70;;;;;;;17.47;18.05;99171.66;5050663;28;20425;-55
2022/05/21 09:38:26;;;;;;;4.72;2.60;;;;;;;17.39;18.62;99164.47;5051723;28;20116;-52
2022/05/21 09:41:16;;;;;;;5.68;2.58;;;;;;;17.55;17.86;99158.03;5051180;28;20052;-60
2022/05/21 09:47:21;;;;;;;5.13;3.00;;;;;;;17.75;17.35;99154.78;5050956;28;20043;-60
2022/05/21 09:50:05;;;;;;;7.30;2.50;;;;;;;17.65;17.87;99146.94;5039802;28;20071;-61
2022/05/21 09:52:32;;;;;;;5.80;1.92;;;;;;;17.61;17.94;99153.75;5031232;28;20061;-61
2022/05/21 09:54:58;;;;;;;7.47;2.80;;;;;;;17.61;17.72;99159.16;5031151;28;20068;-57
2022/05/21 09:57:39;;;;;;;4.82;2.80;;;;;;;17.59;17.62;99145.78;5031378;28;20432;-54
2022/05/21 10:00:05;;;;;;;7.30;2.20;;;;;;;17.52;17.83;99134.03;5047793;28;20087;-59
2022/05/21 10:03:01;;;;;;;4.30;2.15;;;;;;;17.74;17.18;99137.69;5051184;28;20370;-59
2022/05/21 10:05:50;;;;;;;5.93;2.35;;;;;;;17.77;17.54;99139.19;5051010;28;20040;-61
2022/05/21 10:11:30;;;;;;;4.40;2.70;;;;;;;17.63;18.00;99103.81;5050850;28;20033;-59
2022/05/21 10:14:06;;;;;;;6.05;2.90;;;;;;;17.76;17.81;99118.53;5040863;28;20155;-60
2022/05/21 10:16:45;;;;;;;4.68;2.47;;;;;;;17.83;17.65;99126.75;5031272;28;20044;-60
2022/05/21 10:19:32;;;;;;;3.00;2.35;;;;;;;17.93;17.39;99106.47;5040640;28;20053;-58
2022/05/21 10:22:12;;;;;;;6.18;2.30;;;;;;;17.96;17.19;99107.13;5051021;28;20036;-60
2022/05/21 10:25:18;;;;;;;3.95;2.30;;;;;;;18.11;17.03;99101.72;5050901;28;20033;-59
2022/05/21 10:28:06;;;;;;;11.10;2.90;;;;;;;18.11;17.43;99102.56;5049675;28;20053;-56
2022/05/21 10:30:55;;;;;;;6.80;2.28;;;;;;;18.14;16.98;99102.19;5038318;28;20282;-60
2022/05/21 10:33:40;;;;;;;6.47;2.35;;;;;;;18.06;17.33;99096.84;5031391;28;20029;-58
2022/05/21 10:36:17;;;;;;;3.33;2.28;;;;;;;18.15;17.32;99087.59;5031109;28;20080;-58
2022/05/21 10:39:08;;;;;;;4.60;2.50;;;;;;;18.22;16.98;99096.63;5044153;28;20052;-59
2022/05/21 10:41:43;;;;;;;6.32;2.63;;;;;;;18.15;17.20;99111.97;5050594;28;20115;-60
2022/05/21 10:44:50;;;;;;;4.55;2.42;;;;;;;18.01;17.06;99074.88;5050754;28;20413;-60
2022/05/21 10:47:57;;;;;;;7.88;2.70;;;;;;;18.10;17.23;99106.31;5034208;28;20493;-58
2022/05/21 10:50:37;;;;;;;4.05;2.40;;;;;;;17.88;17.35;99095.38;5029117;28;20037;-61
2022/05/21 10:53:28;;;;;;;6.07;2.70;;;;;;;18.07;17.23;99080.41;5029390;28;20080;-61
2022/05/21 10:56:11;;;;;;;5.93;2.58;;;;;;;18.01;18.02;99091.16;5030899;28;20077;-61
2022/05/21 10:58:58;;;;;;;3.90;2.38;;;;;;;17.94;17.86;99091.91;5044558;28;20029;-59
2022/05/21 11:01:39;;;;;;;5.40;2.72;;;;;;;17.93;18.14;99084.81;5050225;28;20029;-63
2022/05/21 11:04:56;;;;;;;6.75;2.58;;;;;;;17.90;18.31;99090.63;5030995;28;20091;-63
2022/05/21 11:07:31;;;;;;;4.75;2.53;;;;;;;17.73;18.24;99083.72;5029638;28;20045;-56
2022/05/21 11:10:23;;;;;;;6.82;2.65;;;;;;;17.64;18.50;99074.88;5030450;28;20436;-61
2022/05/21 11:12:57;;;;;;;4.22;2.58;;;;;;;17.46;18.35;99067.16;5041251;28;20045;-56
2022/05/21 11:15:56;;;;;;;5.18;2.40;;;;;;;17.49;17.87;99066.78;5050690;28;20033;-64
2022/05/21 11:18:31;;;;;;;4.75;2.22;;;;;;;17.30;18.21;99058.19;5049513;28;20070;-60
2022/05/21 11:21:13;;;;;;;5.00;2.67;;;;;;;17.49;18.20;99067.63;5039652;28;20042;-59
2022/05/21 11:24:00;;;;;;;6.15;2.90;;;;;;;17.57;18.24;99058.53;5030678;28;20108;-62
2022/05/21 11:26:32;;;;;;;8.10;2.67;;;;;;;17.38;18.77;99048.31;5036071;28;20178;-62
2022/05/21 11:29:01;;;;;;;9.02;2.70;;;;;;;17.34;18.91;99042.44;5050352;28;20052;-61
2022/05/21 11:37:21;;;;;;;6.17;2.27;;;;;;;17.63;17.91;99027.19;5050474;28;20493;-61
2022/05/21 11:39:49;;;;;;;6.82;2.40;;;;;;;17.65;18.31;99034.09;5033445;28;20071;-60
2022/05/21 11:42:17;;;;;;;6.00;2.50;;;;;;;17.71;18.55;99020.81;5050110;28;20064;-56
2022/05/21 11:44:56;;;;;;;4.25;2.60;;;;;;;17.61;18.00;99008.44;5050472;28;20079;-63
2022/05/21 11:47:22;;;;;;;5.40;2.55;;;;;;;17.60;17.88;99014.03;5050160;28;20098;-60
2022/05/21 11:50:22;;;;;;;5.30;2.58;;;;;;;17.68;17.53;99007.66;5050270;28;20465;-61
2022/05/21 11:52:53;;;;;;;3.83;2.40;;;;;;;17.61;18.21;99004.88;5042123;28;20083;-63
2022/05/21 11:55:23;;;;;;;4.30;2.35;;;;;;;17.63;17.86;99002.81;5050438;28;20029;-55
2022/05/21 11:57:52;;;;;;;8.02;2.60;;;;;;;17.62;17.86;98985.75;5052717;28;20025;-62
2022/05/21 12:00:18;;;;;;;7.57;2.40;;;;;;;17.70;17.80;99003.72;5045205;28;20025;-59
2022/05/21 12:02:58;;;;;;;8.05;2.60;;;;;;;17.82;17.60;98995.13;5034110;28;20133;-61
2022/05/21 12:05:33;;;;;;;5.03;2.80;;;;;;;17.78;18.18;99000.91;5034023;28;20087;-64
2022/05/21 12:08:11;;;;;;;8.10;3.33;;;;;;;17.81;18.43;99005.09;5039553;28;20388;-63
2022/05/21 12:10:58;;;;;;;7.47;3.80;;;;;;;17.69;18.40;99006.63;5051915;28;20052;-61
2022/05/21 12:13:46;;;;;;;9.38;3.28;;;;;;;17.47;18.35;98993.06;5053271;28;20029;-61
2022/05/21 12:16:19;;;;;;;7.05;3.60;;;;;;;17.17;18.79;98993.91;5040237;28;20049;-59
2022/05/21 12:18:46;;;;;;;5.65;2.63;;;;;;;16.97;18.90;98988.22;5031730;28;20033;-60